Time;durP1;ratioP1;P1;durP2;ratioP2;P2;SDS_P1;SDS_P2;PMS_P1;PMS_P2;Temp;Humidity;BMP_temperature;BMP_pressure;BME280_temperature;BME280_humidity;BME280_pressure;Samples;Min_cycle;Max_cycle;Signal;HPM_P1;HPM_P2
2022/06/11 00:00:12;;;;;;;;;;;22.60;58.20;;;;;;4984988;28;19914;-73
2022/06/11 00:02:38;;;;;;;;;;;22.50;58.20;;;;;;4983383;28;19976;-74
2022/06/11 00:05:04;;;;;;;;;;;22.60;58.20;;;;;;4984094;28;19968;-71
2022/06/11 00:07:29;;;;;;;;;;;22.60;58.20;;;;;;4985200;28;20543;-72
2022/06/11 00:09:55;;;;;;;;;;;22.50;58.20;;;;;;4983963;28;19956;-73
2022/06/11 00:12:21;;;;;;;;;;;22.60;58.20;;;;;;4985370;28;20328;-73
2022/06/11 00:14:46;;;;;;;;;;;22.60;58.20;;;;;;4984319;28;19914;-73
2022/06/11 00:17:12;;;;;;;;;;;22.60;58.20;;;;;;4985122;28;19913;-72
2022/06/11 00:19:38;;;;;;;;;;;22.50;58.20;;;;;;4986739;28;19914;-72
2022/06/11 00:22:03;;;;;;;;;;;22.50;58.20;;;;;;4988038;28;19917;-72
2022/06/11 00:24:29;;;;;;;;;;;22.50;58.20;;;;;;4986210;28;19914;-72
2022/06/11 00:26:54;;;;;;;;;;;22.50;58.20;;;;;;4985472;28;19914;-72
2022/06/11 00:29:20;;;;;;;;;;;22.50;58.20;;;;;;4984789;28;20416;-72
2022/06/11 00:31:46;;;;;;;;;;;22.50;58.20;;;;;;4986173;28;19961;-72
2022/06/11 00:34:11;;;;;;;;;;;22.60;58.20;;;;;;4985215;28;19924;-74
2022/06/11 00:36:36;;;;;;;;;;;22.50;58.20;;;;;;4986089;28;19957;-71
2022/06/11 00:39:04;;;;;;;;;;;22.50;58.20;;;;;;4990706;28;19959;-68
2022/06/11 00:41:29;;;;;;;;;;;22.50;58.20;;;;;;4990436;28;19914;-73
2022/06/11 00:43:55;;;;;;;;;;;22.50;58.20;;;;;;4989362;28;20299;-73
2022/06/11 00:46:39;;;;;;;;;;;22.50;58.20;;;;;;4989910;28;19953;-73
2022/06/11 00:49:07;;;;;;;;;;;22.50;58.10;;;;;;4990807;28;19925;-73
2022/06/11 00:51:33;;;;;;;;;;;22.50;58.10;;;;;;4989977;28;19914;-69
2022/06/11 00:53:59;;;;;;;;;;;22.50;58.10;;;;;;4989124;28;19914;-73
2022/06/11 00:56:29;;;;;;;;;;;22.50;58.10;;;;;;4990578;28;19914;-73
2022/06/11 00:58:55;;;;;;;;;;;22.50;58.10;;;;;;4989254;28;19954;-73
2022/06/11 01:01:21;;;;;;;;;;;22.50;58.10;;;;;;4989415;28;20016;-73
2022/06/11 01:03:46;;;;;;;;;;;22.50;58.10;;;;;;4989028;28;19910;-73
2022/06/11 01:06:12;;;;;;;;;;;22.40;58.00;;;;;;4989551;28;19910;-74
2022/06/11 01:09:03;;;;;;;;;;;22.50;58.10;;;;;;4990546;28;19910;-73
2022/06/11 01:11:39;;;;;;;;;;;22.50;58.00;;;;;;4973937;28;19910;-69
2022/06/11 01:14:14;;;;;;;;;;;22.50;58.00;;;;;;4990644;28;19918;-74
2022/06/11 01:16:45;;;;;;;;;;;22.50;58.00;;;;;;4988633;28;21825;-74
2022/06/11 01:19:22;;;;;;;;;;;22.50;58.00;;;;;;4989932;28;20040;-70
2022/06/11 01:21:54;;;;;;;;;;;22.50;58.00;;;;;;4990898;28;19917;-72
2022/06/11 01:24:26;;;;;;;;;;;22.40;57.90;;;;;;4992547;28;19910;-72
2022/06/11 01:26:54;;;;;;;;;;;22.50;58.00;;;;;;4990862;28;19910;-71
2022/06/11 01:29:33;;;;;;;;;;;22.50;58.00;;;;;;4979542;28;19910;-72
2022/06/11 01:32:00;;;;;;;;;;;22.50;58.00;;;;;;4988366;28;21256;-73
2022/06/11 01:34:34;;;;;;;;;;;22.40;57.90;;;;;;4972589;28;20683;-72
2022/06/11 01:37:04;;;;;;;;;;;22.50;58.00;;;;;;4988872;28;19972;-74
2022/06/11 01:39:38;;;;;;;;;;;22.50;58.00;;;;;;4988844;28;19918;-73
2022/06/11 01:42:07;;;;;;;;;;;22.40;58.00;;;;;;4989252;28;19909;-71
2022/06/11 01:44:34;;;;;;;;;;;22.40;58.00;;;;;;4989054;28;19925;-73
2022/06/11 01:46:59;;;;;;;;;;;22.40;58.00;;;;;;4988753;28;19932;-72
2022/06/11 01:49:25;;;;;;;;;;;22.40;58.00;;;;;;4986147;28;20368;-73
2022/06/11 01:51:54;;;;;;;;;;;22.40;58.00;;;;;;4987226;28;19961;-74
2022/06/11 01:54:20;;;;;;;;;;;22.40;58.00;;;;;;4985272;28;19929;-74
2022/06/11 01:56:51;;;;;;;;;;;22.40;58.00;;;;;;4969803;28;19914;-72
2022/06/11 01:59:35;;;;;;;;;;;22.40;58.00;;;;;;4985924;28;19968;-74
2022/06/11 02:02:03;;;;;;;;;;;22.40;58.00;;;;;;4986578;28;20492;-72
2022/06/11 02:04:34;;;;;;;;;;;22.40;58.00;;;;;;4985059;28;19957;-72
2022/06/11 02:06:59;;;;;;;;;;;22.40;58.00;;;;;;4986940;28;19910;-73
2022/06/11 02:09:51;;;;;;;;;;;22.40;58.00;;;;;;4986810;28;20647;-72
2022/06/11 02:12:21;;;;;;;;;;;22.40;58.00;;;;;;4970361;28;20299;-73
2022/06/11 02:14:54;;;;;;;;;;;22.40;58.00;;;;;;4985027;28;19924;-72
2022/06/11 02:17:24;;;;;;;;;;;22.40;58.00;;;;;;4985510;28;19914;-74
2022/06/11 02:19:54;;;;;;;;;;;22.40;58.00;;;;;;4985414;28;19910;-72
2022/06/11 02:22:25;;;;;;;;;;;22.40;58.00;;;;;;4985210;28;19916;-72
2022/06/11 02:24:56;;;;;;;;;;;22.40;58.00;;;;;;4960026;28;19997;-73
2022/06/11 02:27:22;;;;;;;;;;;22.40;58.00;;;;;;4984913;28;20663;-73
2022/06/11 02:29:48;;;;;;;;;;;22.40;58.00;;;;;;4986684;28;20352;-73
2022/06/11 02:32:14;;;;;;;;;;;22.30;58.00;;;;;;4984910;28;19996;-73
2022/06/11 02:34:40;;;;;;;;;;;22.40;58.00;;;;;;4984857;28;19945;-73
2022/06/11 02:37:09;;;;;;;;;;;22.40;58.00;;;;;;4984800;28;19960;-72
2022/06/11 02:39:35;;;;;;;;;;;22.40;58.00;;;;;;4986135;28;19996;-72
2022/06/11 02:42:02;;;;;;;;;;;22.40;58.00;;;;;;4984216;28;19914;-74
2022/06/11 02:44:28;;;;;;;;;;;22.30;58.00;;;;;;4986656;28;19952;-73
2022/06/11 02:46:54;;;;;;;;;;;22.30;58.00;;;;;;4987020;28;19945;-74
2022/06/11 02:49:21;;;;;;;;;;;22.30;58.00;;;;;;4985340;28;19997;-74
2022/06/11 02:51:46;;;;;;;;;;;22.40;58.00;;;;;;4983979;28;19917;-72
2022/06/11 02:54:12;;;;;;;;;;;22.30;58.00;;;;;;4986059;28;19921;-72
2022/06/11 02:56:38;;;;;;;;;;;22.40;58.00;;;;;;4985801;28;20384;-72
2022/06/11 02:59:03;;;;;;;;;;;22.30;58.00;;;;;;4984937;28;19910;-73
2022/06/11 03:01:29;;;;;;;;;;;22.30;58.00;;;;;;4984683;28;19910;-72
2022/06/11 03:03:54;;;;;;;;;;;22.30;58.00;;;;;;4985242;28;19997;-73
2022/06/11 03:06:20;;;;;;;;;;;22.30;58.00;;;;;;4985013;28;19910;-74
2022/06/11 03:08:46;;;;;;;;;;;22.30;58.00;;;;;;4985478;28;19929;-73
2022/06/11 03:11:12;;;;;;;;;;;22.30;57.90;;;;;;4986640;28;20399;-73
2022/06/11 03:13:37;;;;;;;;;;;22.30;57.90;;;;;;4986417;28;19914;-73
2022/06/11 03:16:03;;;;;;;;;;;22.30;58.00;;;;;;4989940;28;19917;-73
2022/06/11 03:18:28;;;;;;;;;;;22.30;57.90;;;;;;4987144;28;19910;-71
2022/06/11 03:20:54;;;;;;;;;;;22.30;57.90;;;;;;4984429;28;20479;-72
2022/06/11 03:23:20;;;;;;;;;;;22.30;58.10;;;;;;4984176;28;19910;-73
2022/06/11 03:25:45;;;;;;;;;;;22.20;57.90;;;;;;4985245;28;19933;-71
2022/06/11 03:28:12;;;;;;;;;;;22.20;57.70;;;;;;4984968;28;20446;-74
2022/06/11 03:30:37;;;;;;;;;;;22.20;57.60;;;;;;4983888;28;19909;-73
2022/06/11 03:33:03;;;;;;;;;;;22.20;57.40;;;;;;4991584;28;19918;-73
2022/06/11 03:35:28;;;;;;;;;;;22.10;57.20;;;;;;5000640;28;19914;-73
2022/06/11 03:37:54;;;;;;;;;;;22.10;57.10;;;;;;4985993;28;20528;-75
2022/06/11 03:40:19;;;;;;;;;;;22.10;56.90;;;;;;4985033;28;19910;-73
2022/06/11 03:42:45;;;;;;;;;;;22.10;56.70;;;;;;4983280;28;20012;-74
2022/06/11 03:45:10;;;;;;;;;;;22.10;56.60;;;;;;4983858;28;20324;-73
2022/06/11 03:47:38;;;;;;;;;;;22.10;56.40;;;;;;4983516;28;19914;-73
2022/06/11 03:50:07;;;;;;;;;;;22.10;56.40;;;;;;4983850;28;19925;-72
2022/06/11 03:52:32;;;;;;;;;;;22.10;56.90;;;;;;4984049;28;20005;-73
2022/06/11 03:54:58;;;;;;;;;;;22.10;56.30;;;;;;4985030;28;20418;-73
2022/06/11 03:57:24;;;;;;;;;;;22.10;56.30;;;;;;4985736;28;19920;-73
2022/06/11 03:59:49;;;;;;;;;;;22.10;56.30;;;;;;4983962;28;19909;-72
2022/06/11 04:02:14;;;;;;;;;;;22.00;56.40;;;;;;4986578;28;20221;-70
2022/06/11 04:04:40;;;;;;;;;;;22.10;56.10;;;;;;4989418;28;19914;-72
2022/06/11 04:07:05;;;;;;;;;;;22.10;56.30;;;;;;4997579;28;19916;-70
2022/06/11 04:09:32;;;;;;;;;;;22.10;56.20;;;;;;5002687;28;19916;-70
2022/06/11 04:11:58;;;;;;;;;;;22.00;56.20;;;;;;4997467;28;19914;-73
2022/06/11 04:14:23;;;;;;;;;;;22.00;56.20;;;;;;4983398;28;19945;-69
2022/06/11 04:16:52;;;;;;;;;;;22.00;56.10;;;;;;4983420;28;19975;-73
2022/06/11 04:19:22;;;;;;;;;;;22.00;56.20;;;;;;4982934;28;19976;-72
2022/06/11 04:21:48;;;;;;;;;;;22.00;56.20;;;;;;4982449;28;19940;-73
2022/06/11 04:24:14;;;;;;;;;;;22.00;56.30;;;;;;4983105;28;20012;-73
2022/06/11 04:26:40;;;;;;;;;;;22.00;56.20;;;;;;4984288;28;19921;-73
2022/06/11 04:29:06;;;;;;;;;;;22.00;56.40;;;;;;4984308;28;19913;-73
2022/06/11 04:31:32;;;;;;;;;;;22.00;56.40;;;;;;4984237;28;20444;-73
2022/06/11 04:33:58;;;;;;;;;;;22.00;56.50;;;;;;4984626;28;19964;-73
2022/06/11 04:36:24;;;;;;;;;;;22.00;56.70;;;;;;4984301;28;19922;-74
2022/06/11 04:38:49;;;;;;;;;;;22.00;56.50;;;;;;4983185;28;19914;-74
2022/06/11 04:41:15;;;;;;;;;;;22.00;56.40;;;;;;4982778;28;19925;-73
2022/06/11 04:43:41;;;;;;;;;;;22.10;56.40;;;;;;4984085;28;20001;-73
2022/06/11 04:46:07;;;;;;;;;;;22.10;56.40;;;;;;4983139;28;19914;-71
2022/06/11 04:48:32;;;;;;;;;;;22.10;56.40;;;;;;4984111;28;19968;-73
2022/06/11 04:50:58;;;;;;;;;;;22.10;56.40;;;;;;4984205;28;19913;-73
2022/06/11 04:53:23;;;;;;;;;;;22.10;56.60;;;;;;4984129;28;20681;-73
2022/06/11 04:55:49;;;;;;;;;;;22.20;56.80;;;;;;4984928;28;19949;-73
2022/06/11 04:58:14;;;;;;;;;;;22.20;56.70;;;;;;4984444;28;19925;-73
2022/06/11 05:00:39;;;;;;;;;;;22.10;56.80;;;;;;4984959;28;19914;-71
2022/06/11 05:03:05;;;;;;;;;;;22.20;56.90;;;;;;4984268;28;19918;-71
2022/06/11 05:05:30;;;;;;;;;;;22.20;57.00;;;;;;4984292;28;19945;-72
2022/06/11 05:07:59;;;;;;;;;;;22.20;57.00;;;;;;4985620;28;19918;-72
2022/06/11 05:10:25;;;;;;;;;;;22.20;57.00;;;;;;4984010;28;19925;-71
2022/06/11 05:12:51;;;;;;;;;;;22.20;57.00;;;;;;4983671;28;19918;-72
2022/06/11 05:15:16;;;;;;;;;;;22.20;57.10;;;;;;4987215;28;19961;-73
2022/06/11 05:17:42;;;;;;;;;;;22.20;56.90;;;;;;4985424;28;19914;-72
2022/06/11 05:20:08;;;;;;;;;;;22.20;56.90;;;;;;4985492;28;20380;-70
2022/06/11 05:22:34;;;;;;;;;;;22.20;56.70;;;;;;4984644;28;19918;-72
2022/06/11 05:24:59;;;;;;;;;;;22.20;56.60;;;;;;4986647;28;19921;-71
2022/06/11 05:27:25;;;;;;;;;;;22.20;56.70;;;;;;4988583;28;19914;-68
2022/06/11 05:30:02;;;;;;;;;;;22.20;56.60;;;;;;4987821;28;19913;-71
2022/06/11 05:32:29;;;;;;;;;;;22.20;56.50;;;;;;4987060;28;19920;-71
2022/06/11 05:34:57;;;;;;;;;;;22.20;56.50;;;;;;4987336;28;20013;-72
2022/06/11 05:37:23;;;;;;;;;;;22.20;56.60;;;;;;4985807;28;19961;-72
2022/06/11 05:39:48;;;;;;;;;;;22.20;56.90;;;;;;4987105;28;19914;-71
2022/06/11 05:42:14;;;;;;;;;;;22.20;56.90;;;;;;4987004;28;19918;-71
2022/06/11 05:44:40;;;;;;;;;;;22.20;56.90;;;;;;4969560;28;19913;-71
2022/06/11 05:47:05;;;;;;;;;;;22.10;56.80;;;;;;4985983;28;20389;-71
2022/06/11 05:49:33;;;;;;;;;;;22.10;56.70;;;;;;4981339;28;20341;-68
2022/06/11 05:51:59;;;;;;;;;;;22.10;56.70;;;;;;4986181;28;19918;-72
2022/06/11 05:54:25;;;;;;;;;;;22.10;56.60;;;;;;4986062;28;19973;-69
2022/06/11 05:56:51;;;;;;;;;;;22.10;56.60;;;;;;4986175;28;20001;-71
2022/06/11 05:59:20;;;;;;;;;;;22.20;56.70;;;;;;4987154;28;19922;-72
2022/06/11 06:01:46;;;;;;;;;;;22.10;56.60;;;;;;4986054;28;19921;-71
2022/06/11 06:04:11;;;;;;;;;;;22.20;56.60;;;;;;4985425;28;19914;-71
2022/06/11 06:06:37;;;;;;;;;;;22.10;56.50;;;;;;4988172;28;19972;-72
2022/06/11 06:09:02;;;;;;;;;;;22.20;56.60;;;;;;4990854;28;19928;-72
2022/06/11 06:11:28;;;;;;;;;;;22.20;56.60;;;;;;4987548;28;20001;-72
2022/06/11 06:13:56;;;;;;;;;;;22.20;56.60;;;;;;4987329;28;19929;-71
2022/06/11 06:16:25;;;;;;;;;;;22.20;56.70;;;;;;4985075;28;20384;-69
2022/06/11 06:18:50;;;;;;;;;;;22.20;56.50;;;;;;4986722;28;19918;-71
2022/06/11 06:21:17;;;;;;;;;;;22.20;56.30;;;;;;4986456;28;19921;-71
2022/06/11 06:23:42;;;;;;;;;;;22.10;56.20;;;;;;4985314;28;19914;-70
2022/06/11 06:26:08;;;;;;;;;;;22.10;56.30;;;;;;4984845;28;19914;-70
2022/06/11 06:28:34;;;;;;;;;;;22.20;56.20;;;;;;4985253;28;19942;-71
2022/06/11 06:31:00;;;;;;;;;;;22.10;56.20;;;;;;4986317;28;20281;-71
2022/06/11 06:33:26;;;;;;;;;;;22.10;56.20;;;;;;4985425;28;19925;-71
2022/06/11 06:35:51;;;;;;;;;;;22.20;56.20;;;;;;4986066;28;19921;-71
2022/06/11 06:38:17;;;;;;;;;;;22.20;56.20;;;;;;4986882;28;20398;-71
2022/06/11 06:40:42;;;;;;;;;;;22.20;56.20;;;;;;4986901;28;19968;-70
2022/06/11 06:43:08;;;;;;;;;;;22.20;56.20;;;;;;4987262;28;19914;-70
2022/06/11 06:45:33;;;;;;;;;;;22.10;56.10;;;;;;4987089;28;19913;-71
2022/06/11 06:47:59;;;;;;;;;;;22.20;56.30;;;;;;4986151;28;19918;-71
2022/06/11 06:50:24;;;;;;;;;;;22.20;56.20;;;;;;4986184;28;20492;-71
2022/06/11 06:52:50;;;;;;;;;;;22.10;56.10;;;;;;4984251;28;19913;-71
2022/06/11 06:55:15;;;;;;;;;;;22.20;56.30;;;;;;4985468;28;19991;-70
2022/06/11 06:57:41;;;;;;;;;;;22.20;56.40;;;;;;4985824;28;20592;-69
2022/06/11 07:00:07;;;;;;;;;;;22.20;56.40;;;;;;4985702;28;19921;-71
2022/06/11 07:02:32;;;;;;;;;;;22.20;56.30;;;;;;4983486;28;19914;-71
2022/06/11 07:04:59;;;;;;;;;;;22.10;56.30;;;;;;4985706;28;19914;-71
2022/06/11 07:07:25;;;;;;;;;;;22.20;56.60;;;;;;4986080;28;20493;-70
2022/06/11 07:09:53;;;;;;;;;;;22.20;56.40;;;;;;4985725;28;19956;-70
2022/06/11 07:12:19;;;;;;;;;;;22.20;56.40;;;;;;4985417;28;19951;-70
2022/06/11 07:14:44;;;;;;;;;;;22.20;56.60;;;;;;4985150;28;19949;-70
2022/06/11 07:17:10;;;;;;;;;;;22.20;56.50;;;;;;4985472;28;19918;-71
2022/06/11 07:19:36;;;;;;;;;;;22.20;56.50;;;;;;4985777;28;19949;-71
2022/06/11 07:22:03;;;;;;;;;;;22.20;56.60;;;;;;4984109;28;20297;-71
2022/06/11 07:24:29;;;;;;;;;;;22.20;56.50;;;;;;4984472;28;19921;-71
2022/06/11 07:26:55;;;;;;;;;;;22.10;56.40;;;;;;4984960;28;20793;-71
2022/06/11 07:29:22;;;;;;;;;;;22.20;56.50;;;;;;4984045;28;19972;-71
2022/06/11 07:31:47;;;;;;;;;;;22.10;56.20;;;;;;4984094;28;21058;-70
2022/06/11 07:34:13;;;;;;;;;;;22.20;56.40;;;;;;4984711;28;20005;-71
2022/06/11 07:36:38;;;;;;;;;;;22.20;56.20;;;;;;4985670;28;20025;-71
2022/06/11 07:39:04;;;;;;;;;;;22.20;56.20;;;;;;4984659;28;19914;-70
2022/06/11 07:41:29;;;;;;;;;;;22.20;56.20;;;;;;4984473;28;19914;-71
2022/06/11 07:43:55;;;;;;;;;;;22.20;56.40;;;;;;4985245;28;19996;-70
2022/06/11 07:46:21;;;;;;;;;;;22.20;56.20;;;;;;4982453;28;19921;-69
2022/06/11 07:48:46;;;;;;;;;;;22.20;56.10;;;;;;4984557;28;20435;-72
2022/06/11 07:51:12;;;;;;;;;;;22.10;56.00;;;;;;4967044;28;19917;-72
2022/06/11 07:53:38;;;;;;;;;;;22.20;55.80;;;;;;4983349;28;19942;-73
2022/06/11 07:56:03;;;;;;;;;;;22.20;55.90;;;;;;4983416;28;20000;-72
2022/06/11 07:58:30;;;;;;;;;;;22.20;55.80;;;;;;4984355;28;20460;-72
2022/06/11 08:00:57;;;;;;;;;;;22.20;55.60;;;;;;4983238;28;20372;-72
2022/06/11 08:03:22;;;;;;;;;;;22.20;55.60;;;;;;4983057;28;20005;-72
2022/06/11 08:05:48;;;;;;;;;;;22.20;55.50;;;;;;4984935;28;20024;-71
2022/06/11 08:08:14;;;;;;;;;;;22.10;55.30;;;;;;4983496;28;20354;-71
2022/06/11 08:10:40;;;;;;;;;;;22.10;55.30;;;;;;4984505;28;20017;-70
2022/06/11 08:13:05;;;;;;;;;;;22.10;55.30;;;;;;4984145;28;19925;-72
2022/06/11 08:15:31;;;;;;;;;;;22.10;55.30;;;;;;4982836;28;19924;-71
2022/06/11 08:17:56;;;;;;;;;;;22.10;55.40;;;;;;4983399;28;19914;-72
2022/06/11 08:20:23;;;;;;;;;;;22.10;55.60;;;;;;4984565;28;20565;-74
2022/06/11 08:22:48;;;;;;;;;;;22.10;55.60;;;;;;4982335;28;19922;-72
2022/06/11 08:25:14;;;;;;;;;;;22.10;55.70;;;;;;4983644;28;20495;-71
2022/06/11 08:27:39;;;;;;;;;;;22.10;55.60;;;;;;4983890;28;19960;-73
2022/06/11 08:30:05;;;;;;;;;;;22.10;55.60;;;;;;4982844;28;20300;-73
2022/06/11 08:32:30;;;;;;;;;;;22.10;54.90;;;;;;4984087;28;20025;-73
2022/06/11 08:34:56;;;;;;;;;;;22.10;55.40;;;;;;4984787;28;19925;-73
2022/06/11 08:37:22;;;;;;;;;;;22.10;55.50;;;;;;4982717;28;19929;-73
2022/06/11 08:39:48;;;;;;;;;;;22.10;55.50;;;;;;4983075;28;20599;-72
2022/06/11 08:42:26;;;;;;;;;;;22.10;55.00;;;;;;4983900;28;20005;-72
2022/06/11 08:44:52;;;;;;;;;;;22.10;54.90;;;;;;4983643;28;19913;-74
2022/06/11 08:47:21;;;;;;;;;;;22.10;54.60;;;;;;4984602;28;20000;-73
2022/06/11 08:49:46;;;;;;;;;;;22.10;54.80;;;;;;4983849;28;19913;-72
2022/06/11 08:52:15;;;;;;;;;;;22.10;54.70;;;;;;4982841;28;19914;-73
2022/06/11 08:54:41;;;;;;;;;;;22.10;54.40;;;;;;4985150;28;20392;-72
2022/06/11 08:57:09;;;;;;;;;;;22.10;54.00;;;;;;4986087;28;19924;-72
2022/06/11 08:59:40;;;;;;;;;;;22.10;54.10;;;;;;4990724;28;19918;-73
2022/06/11 09:02:20;;;;;;;;;;;22.10;54.10;;;;;;4992370;28;19922;-72
2022/06/11 09:04:49;;;;;;;;;;;22.10;53.50;;;;;;4987451;28;19918;-73
2022/06/11 09:07:17;;;;;;;;;;;22.10;53.70;;;;;;4988631;28;19914;-73
2022/06/11 09:10:01;;;;;;;;;;;22.10;53.50;;;;;;4986835;28;19921;-72
2022/06/11 09:12:43;;;;;;;;;;;22.10;53.50;;;;;;4976726;28;20471;-73
2022/06/11 09:15:19;;;;;;;;;;;22.10;53.40;;;;;;4986639;28;20623;-72
2022/06/11 09:18:00;;;;;;;;;;;22.10;53.50;;;;;;4967538;28;20341;-73
2022/06/11 09:20:33;;;;;;;;;;;22.10;53.30;;;;;;4963740;28;20623;-73
2022/06/11 09:22:59;;;;;;;;;;;22.10;53.40;;;;;;4997223;28;19920;-73
2022/06/11 09:25:27;;;;;;;;;;;22.10;53.30;;;;;;4990164;28;20321;-73
2022/06/11 09:28:07;;;;;;;;;;;22.10;53.30;;;;;;4987711;28;19942;-72
2022/06/11 09:30:42;;;;;;;;;;;22.10;53.00;;;;;;4985798;28;20473;-73
2022/06/11 09:33:13;;;;;;;;;;;22.10;53.20;;;;;;4984354;28;19940;-72
2022/06/11 09:35:46;;;;;;;;;;;22.10;52.90;;;;;;4986032;28;19913;-72
2022/06/11 09:38:30;;;;;;;;;;;22.10;52.90;;;;;;4986023;28;20392;-72
2022/06/11 09:41:04;;;;;;;;;;;22.10;52.60;;;;;;4987490;28;19917;-72
2022/06/11 09:43:48;;;;;;;;;;;22.10;52.90;;;;;;4987363;28;19921;-72
2022/06/11 09:46:13;;;;;;;;;;;22.10;52.70;;;;;;4986502;28;19925;-72
2022/06/11 09:48:57;;;;;;;;;;;22.20;52.50;;;;;;4987480;28;20296;-72
2022/06/11 09:51:23;;;;;;;;;;;22.10;52.30;;;;;;4988356;28;19974;-73
2022/06/11 09:53:52;;;;;;;;;;;22.10;52.40;;;;;;4987593;28;20372;-72
2022/06/11 09:56:37;;;;;;;;;;;22.10;52.20;;;;;;4989345;28;19920;-72
2022/06/11 09:59:05;;;;;;;;;;;22.20;52.10;;;;;;4988208;28;19921;-73
2022/06/11 10:01:57;;;;;;;;;;;22.10;52.00;;;;;;4989017;28;19941;-73
2022/06/11 10:04:24;;;;;;;;;;;22.10;52.30;;;;;;4988973;28;19956;-72
2022/06/11 10:06:51;;;;;;;;;;;22.10;52.20;;;;;;4986344;28;19914;-73
2022/06/11 10:09:26;;;;;;;;;;;22.10;52.30;;;;;;4984760;28;20414;-72
2022/06/11 10:12:07;;;;;;;;;;;22.10;52.10;;;;;;4985118;28;20313;-71
2022/06/11 10:14:37;;;;;;;;;;;22.10;51.90;;;;;;4986167;28;19942;-72
2022/06/11 10:17:04;;;;;;;;;;;22.20;52.10;;;;;;4985639;28;19920;-71
2022/06/11 10:19:40;;;;;;;;;;;22.20;52.20;;;;;;4985060;28;19914;-73
2022/06/11 10:22:38;;;;;;;;;;;22.20;51.50;;;;;;4983970;28;19918;-65
2022/06/11 10:25:19;;;;;;;;;;;22.10;52.20;;;;;;4944520;28;19953;-68
2022/06/11 10:27:48;;;;;;;;;;;22.20;51.10;;;;;;4967809;28;19914;-69
2022/06/11 10:30:22;;;;;;;;;;;22.20;51.60;;;;;;4981659;28;19993;-72
2022/06/11 10:32:48;;;;;;;;;;;22.10;51.90;;;;;;4984588;28;19924;-71
2022/06/11 10:35:18;;;;;;;;;;;22.20;52.20;;;;;;4985227;28;19914;-70
2022/06/11 10:37:45;;;;;;;;;;;22.20;52.40;;;;;;4985191;28;19921;-71
2022/06/11 10:40:24;;;;;;;;;;;22.10;52.10;;;;;;4985122;28;19917;-70
2022/06/11 10:42:53;;;;;;;;;;;22.20;52.20;;;;;;4984677;28;19996;-68
2022/06/11 10:45:18;;;;;;;;;;;22.20;51.70;;;;;;4986224;28;19914;-71
2022/06/11 10:47:47;;;;;;;;;;;22.20;51.90;;;;;;4984980;28;19921;-68
2022/06/11 10:50:13;;;;;;;;;;;22.10;51.40;;;;;;4984939;28;20001;-70
2022/06/11 10:52:57;;;;;;;;;;;22.20;51.60;;;;;;4985805;28;20029;-67
2022/06/11 10:55:27;;;;;;;;;;;22.20;50.90;;;;;;4965851;28;19919;-70
2022/06/11 10:57:52;;;;;;;;;;;22.20;51.10;;;;;;4964808;28;19920;-68
2022/06/11 11:00:23;;;;;;;;;;;22.20;51.20;;;;;;4985297;28;19914;-67
2022/06/11 11:02:50;;;;;;;;;;;22.20;51.30;;;;;;4985615;28;20336;-69
2022/06/11 11:05:15;;;;;;;;;;;22.20;50.60;;;;;;4984621;28;19918;-66
2022/06/11 11:07:42;;;;;;;;;;;22.20;51.10;;;;;;4983743;28;19914;-73
2022/06/11 11:10:31;;;;;;;;;;;22.20;51.40;;;;;;4984472;28;20513;-71
2022/06/11 11:12:57;;;;;;;;;;;22.30;51.70;;;;;;4972402;28;20679;-71
2022/06/11 11:15:25;;;;;;;;;;;22.30;51.90;;;;;;4984385;28;19949;-70
2022/06/11 11:17:52;;;;;;;;;;;22.30;52.50;;;;;;4985874;28;19914;-74
2022/06/11 11:20:32;;;;;;;;;;;22.40;53.60;;;;;;4984209;28;20595;-71
2022/06/11 11:23:00;;;;;;;;;;;22.60;48.30;;;;;;4984084;28;19914;-67
2022/06/11 11:25:33;;;;;;;;;;;22.70;52.70;;;;;;4984181;28;19921;-71
2022/06/11 11:27:59;;;;;;;;;;;22.70;53.30;;;;;;4985672;28;19914;-71
2022/06/11 11:30:28;;;;;;;;;;;22.70;53.10;;;;;;4986247;28;20024;-70
2022/06/11 11:32:53;;;;;;;;;;;22.70;53.90;;;;;;4984050;28;19914;-71
2022/06/11 11:35:20;;;;;;;;;;;22.70;51.20;;;;;;4985351;28;19922;-72
2022/06/11 11:37:46;;;;;;;;;;;22.70;53.40;;;;;;4984138;28;20000;-72
2022/06/11 11:40:24;;;;;;;;;;;22.70;52.10;;;;;;4984713;28;19918;-71
2022/06/11 11:42:49;;;;;;;;;;;22.70;52.30;;;;;;4985322;28;20008;-70
2022/06/11 11:45:28;;;;;;;;;;;22.70;52.50;;;;;;4983926;28;19918;-70
2022/06/11 11:47:54;;;;;;;;;;;22.70;54.50;;;;;;4985091;28;19918;-69
2022/06/11 11:50:27;;;;;;;;;;;22.70;54.50;;;;;;4985373;28;20020;-70
2022/06/11 11:53:03;;;;;;;;;;;22.70;54.60;;;;;;4983085;28;20347;-70
2022/06/11 11:55:29;;;;;;;;;;;22.70;54.50;;;;;;4985141;28;20004;-70
2022/06/11 11:57:56;;;;;;;;;;;22.70;54.40;;;;;;4985845;28;19925;-70
2022/06/11 12:00:31;;;;;;;;;;;22.70;54.30;;;;;;4986162;28;19957;-70
2022/06/11 12:02:59;;;;;;;;;;;22.80;54.90;;;;;;4987873;28;19914;-70
2022/06/11 12:05:30;;;;;;;;;;;22.70;54.90;;;;;;4983255;28;21831;-71
2022/06/11 12:07:56;;;;;;;;;;;22.80;54.70;;;;;;4974087;28;20441;-71
2022/06/11 12:10:30;;;;;;;;;;;22.70;54.50;;;;;;4983508;28;19914;-70
2022/06/11 12:12:55;;;;;;;;;;;22.80;54.30;;;;;;4983058;28;19921;-69
2022/06/11 12:15:26;;;;;;;;;;;22.80;53.00;;;;;;4984784;28;20372;-69
2022/06/11 12:17:52;;;;;;;;;;;22.80;53.50;;;;;;4983582;28;20028;-70
2022/06/11 12:20:18;;;;;;;;;;;22.80;54.70;;;;;;4983559;28;20535;-70
2022/06/11 12:22:46;;;;;;;;;;;22.80;55.00;;;;;;4983974;28;20004;-69
2022/06/11 12:25:28;;;;;;;;;;;22.80;54.60;;;;;;4983331;28;20009;-70
2022/06/11 12:27:53;;;;;;;;;;;22.80;54.00;;;;;;4983661;28;19921;-70
2022/06/11 12:30:23;;;;;;;;;;;22.90;55.20;;;;;;4984958;28;19918;-71
2022/06/11 12:32:48;;;;;;;;;;;22.90;53.80;;;;;;4983069;28;19914;-74
2022/06/11 12:35:15;;;;;;;;;;;22.90;54.50;;;;;;4983356;28;20569;-70
2022/06/11 12:37:44;;;;;;;;;;;22.90;54.70;;;;;;4984694;28;19928;-73
2022/06/11 12:40:27;;;;;;;;;;;22.90;51.50;;;;;;4983865;28;20551;-70
2022/06/11 12:42:57;;;;;;;;;;;22.90;52.30;;;;;;4985041;28;20694;-69
2022/06/11 12:45:22;;;;;;;;;;;22.90;51.10;;;;;;4984222;28;19914;-70
2022/06/11 12:47:54;;;;;;;;;;;22.90;50.80;;;;;;4985781;28;19914;-71
2022/06/11 12:50:20;;;;;;;;;;;22.80;51.80;;;;;;4986129;28;22387;-70
2022/06/11 12:52:54;;;;;;;;;;;22.80;52.30;;;;;;4987008;28;19918;-70
2022/06/11 12:55:36;;;;;;;;;;;22.80;52.00;;;;;;4986688;28;19918;-70
2022/06/11 12:58:07;;;;;;;;;;;22.70;52.90;;;;;;4987360;28;20343;-70
2022/06/11 13:00:32;;;;;;;;;;;22.70;52.70;;;;;;4985250;28;20396;-71
2022/06/11 13:03:05;;;;;;;;;;;22.70;53.10;;;;;;4982716;28;19918;-70
2022/06/11 13:05:52;;;;;;;;;;;22.70;52.60;;;;;;4975976;28;20374;-71
2022/06/11 13:08:24;;;;;;;;;;;22.70;53.10;;;;;;4982999;28;19957;-70
2022/06/11 13:11:12;;;;;;;;;;;22.70;53.30;;;;;;4982328;28;19921;-70
2022/06/11 13:13:54;;;;;;;;;;;22.70;53.20;;;;;;4938035;28;19917;-69
2022/06/11 13:16:26;;;;;;;;;;;22.70;53.20;;;;;;4982997;28;20559;-71
2022/06/11 13:19:03;;;;;;;;;;;22.80;52.70;;;;;;4982867;28;20395;-70
2022/06/11 13:21:31;;;;;;;;;;;22.70;51.70;;;;;;4982216;28;20792;-71
2022/06/11 13:23:59;;;;;;;;;;;22.70;52.30;;;;;;4983016;28;19917;-70
2022/06/11 13:26:44;;;;;;;;;;;22.70;53.40;;;;;;4984204;28;19921;-71
2022/06/11 13:29:21;;;;;;;;;;;22.70;53.30;;;;;;4983823;28;19914;-71
2022/06/11 13:31:52;;;;;;;;;;;22.70;53.30;;;;;;4983804;28;20511;-70
2022/06/11 13:34:25;;;;;;;;;;;22.70;52.40;;;;;;4983836;28;19917;-71
2022/06/11 13:37:09;;;;;;;;;;;22.70;53.20;;;;;;4983947;28;19936;-69
2022/06/11 13:39:43;;;;;;;;;;;22.70;52.90;;;;;;4983414;28;19914;-70
2022/06/11 13:42:15;;;;;;;;;;;22.70;53.30;;;;;;4981863;28;20004;-70
2022/06/11 13:44:43;;;;;;;;;;;22.70;53.40;;;;;;4983747;28;19925;-71
2022/06/11 13:47:27;;;;;;;;;;;22.70;53.30;;;;;;4987688;28;19952;-70
2022/06/11 13:49:56;;;;;;;;;;;22.70;53.40;;;;;;4969820;28;19968;-70
2022/06/11 13:55:21;;;;;;;;;;;22.70;53.10;;;;;;4985909;28;20356;-70
2022/06/11 13:58:05;;;;;;;;;;;22.70;53.30;;;;;;4987250;28;20008;-70
2022/06/11 14:00:35;;;;;;;;;;;22.70;53.40;;;;;;4987007;28;19916;-70
2022/06/11 14:03:21;;;;;;;;;;;22.70;53.30;;;;;;4985605;28;19921;-70
2022/06/11 14:05:46;;;;;;;;;;;22.70;53.30;;;;;;4986911;28;19925;-69
2022/06/11 14:08:20;;;;;;;;;;;22.70;53.30;;;;;;4987240;28;19914;-70
2022/06/11 14:10:46;;;;;;;;;;;22.70;53.40;;;;;;4985309;28;19992;-70
2022/06/11 14:13:21;;;;;;;;;;;22.70;53.30;;;;;;4986878;28;19928;-69
2022/06/11 14:15:48;;;;;;;;;;;22.70;53.40;;;;;;4986698;28;20414;-70
2022/06/11 14:18:20;;;;;;;;;;;22.70;53.20;;;;;;4986941;28;20662;-70
2022/06/11 14:20:47;;;;;;;;;;;22.70;53.30;;;;;;4986904;28;19914;-69
2022/06/11 14:23:12;;;;;;;;;;;22.70;53.30;;;;;;4986089;28;19921;-70
2022/06/11 14:25:42;;;;;;;;;;;22.70;53.30;;;;;;4986497;28;19914;-69
2022/06/11 14:28:13;;;;;;;;;;;22.70;53.30;;;;;;4986986;28;20639;-69